Eko 2 — SY9957 — position and weather

sailwx.info

Track history (hours):
 
Tides and Currents Weather Stations Pressure Air Temp Water Temp Dewpoint Dewpoint Depression Visibility Wind Speed Wind Dir Waves Ship Positions

Eko 2

Last reported at 2014-Oct-30 07:16 UTC. Time now 2014-Oct-30 23:53 UTC.
Position N 36°50' E 025°52'.

Length 89 m; draft 4.3 m.

Type: Ship (hazmat cat A). MMSI: 240827000.

Date/timePositionNaut miles runAvg speedWind from/ knotsBaromVisibWave heightAir tempDewpointWater temp
2014-Oct-30 07:16N 36°50' E 025°52'3 4.8
2014-Oct-30 06:34N 36°53' E 025°52'9 9.0
2014-Oct-30 05:34N 36°58' E 026°01'8 8.3
2014-Oct-30 04:33N 37°00' E 026°11'10 8.8
2014-Oct-30 03:28N 37°03' E 026°23'  
2014-Oct-27 01:33N 36°17' E 026°17'1010.3
2014-Oct-27 00:33N 36°21' E 026°06'1010.4
2014-Oct-26 23:33N 36°25' E 025°54'1110.5
2014-Oct-26 22:33N 36°29' E 025°42'1010.4
2014-Oct-26 21:33N 36°34' E 025°30'1110.6
2014-Oct-26 20:33N 36°39' E 025°19'5 4.9
2014-Oct-26 19:33N 36°43' E 025°16'0 0.0
2014-Oct-26 18:33N 36°43' E 025°16'0 0.0
2014-Oct-26 17:29N 36°43' E 025°16'0 0.0
2014-Oct-26 16:32N 36°43' E 025°16'0 0.0
2014-Oct-26 15:30N 36°43' E 025°16'0 0.0
2014-Oct-26 14:30N 36°43' E 025°16'0 0.0
2014-Oct-26 13:30N 36°43' E 025°16'1 0.7
2014-Oct-26 12:33N 36°43' E 025°16'1 0.6
2014-Oct-26 11:32N 36°42' E 025°16'0 0.0
2014-Oct-26 10:34N 36°42' E 025°16'8 7.7
2014-Oct-26 09:33N 36°47' E 025°08'1111.0
2014-Oct-26 08:33N 36°55' E 024°58'9 9.1
2014-Oct-26 07:33N 37°03' E 025°02'5 0.3
2014-Oct-25 14:28N 37°06' E 025°07'9 9.6
2014-Oct-25 13:33N 37°10' E 025°17'6 5.9
2014-Oct-25 12:32N 37°06' E 025°22'0 0.0
2014-Oct-25 11:29N 37°06' E 025°22'0 0.0
2014-Oct-25 10:29N 37°06' E 025°22'0 0.0
2014-Oct-25 09:29N 37°06' E 025°22'0 0.1
2014-Oct-25 08:29N 37°06' E 025°22'0 0.1
2014-Oct-25 07:32N 37°06' E 025°22'0 0.0
2014-Oct-25 06:32N 37°06' E 025°22'0 0.0
2014-Oct-25 05:32N 37°06' E 025°22'0 0.0
2014-Oct-25 04:29N 37°06' E 025°22'0 0.0
2014-Oct-25 03:32N 37°06' E 025°22'0 0.0
2014-Oct-25 02:29N 37°06' E 025°22'0 0.0
2014-Oct-25 01:29N 37°06' E 025°22'0 0.0
2014-Oct-25 00:29N 37°06' E 025°22'0 0.0
2014-Oct-24 23:29N 37°06' E 025°22'0 0.0
2014-Oct-24 22:32N 37°06' E 025°22'0 0.0
2014-Oct-24 21:32N 37°06' E 025°22'0 0.0
2014-Oct-24 20:32N 37°06' E 025°22'0 0.1
2014-Oct-24 19:29N 37°06' E 025°22'0 0.1
2014-Oct-24 18:29N 37°06' E 025°22'0 0.0
2014-Oct-24 17:29N 37°06' E 025°22'0 0.0
2014-Oct-24 16:32N 37°06' E 025°22'0 0.0
2014-Oct-24 15:29N 37°06' E 025°22'0 0.0
2014-Oct-24 14:32N 37°06' E 025°22'0 0.0
2014-Oct-24 13:32N 37°06' E 025°22'0 0.0
2014-Oct-24 12:32N 37°06' E 025°22'0 0.0
2014-Oct-24 11:29N 37°06' E 025°22'0 0.0
2014-Oct-24 10:30N 37°06' E 025°22'0 0.0
2014-Oct-24 09:33N 37°06' E 025°22'0 0.0
2014-Oct-24 08:33N 37°06' E 025°22'1 0.6
2014-Oct-24 07:33N 37°06' E 025°22'0 0.5
2014-Oct-24 06:32N 37°06' E 025°22'0 0.0
2014-Oct-24 05:32N 37°06' E 025°22'1 0.5
2014-Oct-24 04:34N 37°06' E 025°22'1 0.6
2014-Oct-24 03:33N 37°06' E 025°22'0 0.0
2014-Oct-24 02:33N 37°06' E 025°22'0 0.0
2014-Oct-24 01:33N 37°06' E 025°22'0 0.0
2014-Oct-24 00:33N 37°06' E 025°22'0 0.0
2014-Oct-23 23:33N 37°06' E 025°22'0 0.0
2014-Oct-23 22:27N 37°06' E 025°22'0 0.0
2014-Oct-23 21:33N 37°06' E 025°22'0 0.0
2014-Oct-23 20:33N 37°06' E 025°22'0 0.0
2014-Oct-23 19:33N 37°06' E 025°22'1 0.5
2014-Oct-23 18:28N 37°06' E 025°22'0 0.0
2014-Oct-23 17:28N 37°06' E 025°22'0 0.0
2014-Oct-23 16:28N 37°06' E 025°22'1 0.7
2014-Oct-23 15:32N 37°06' E 025°22'0 0.0
2014-Oct-23 14:27N 37°06' E 025°22'0 0.0
2014-Oct-23 13:33N 37°06' E 025°22'1 0.6
2014-Oct-23 12:33N 37°06' E 025°22'0 0.0
2014-Oct-23 11:33N 37°06' E 025°22'0 0.4
2014-Oct-23 10:33N 37°06' E 025°22'0 0.2
2014-Oct-23 09:33N 37°06' E 025°22'2 2.1
2014-Oct-23 08:33N 37°06' E 025°19'1111.4
2014-Oct-23 07:33N 36°54' E 025°15'1111.5
2014-Oct-23 06:33N 36°43' E 025°14'1111.2
2014-Oct-23 05:34N 36°33' E 025°18'1110.9
2014-Oct-23 04:33N 36°23' E 025°26'0 0.1
2014-Oct-23 03:27N 36°23' E 025°26'0 0.0
2014-Oct-23 02:33N 36°23' E 025°26'0 0.0
2014-Oct-23 01:33N 36°23' E 025°26'0 0.0
2014-Oct-23 00:31N 36°23' E 025°26'0 0.0
2014-Oct-22 23:33N 36°23' E 025°26'0 0.0
2014-Oct-22 22:33N 36°23' E 025°26'0 0.0
2014-Oct-22 21:33N 36°23' E 025°26'0 0.0
2014-Oct-22 20:28N 36°23' E 025°26'0 0.0
2014-Oct-22 19:31N 36°23' E 025°26'0 0.0
2014-Oct-22 18:30N 36°23' E 025°26'0 0.0
2014-Oct-22 17:34N 36°23' E 025°26'0 0.0
2014-Oct-22 16:30N 36°23' E 025°26'0 0.0
2014-Oct-22 15:33N 36°23' E 025°26'0 0.0
2014-Oct-22 14:33N 36°23' E 025°26'0 0.0
2014-Oct-22 13:33N 36°23' E 025°26'0 0.0
2014-Oct-22 12:33N 36°23' E 025°26'0 0.0
2014-Oct-22 11:33N 36°23' E 025°26'0 0.0
2014-Oct-22 10:32N 36°23' E 025°26'7 7.4
2014-Oct-22 09:33N 36°29' E 025°21'32 9.6
2014-Oct-22 06:16N 36°49' E 024°50'810.6
2014-Oct-22 05:34N 36°51' E 024°41'10 9.7
2014-Oct-22 04:31N 36°50' E 024°28'7 0.5
2014-Oct-21 14:33N 36°42' E 024°27'8 7.7
2014-Oct-21 13:33N 36°50' E 024°29'13 2.7
2014-Oct-21 08:33N 36°59' E 024°40'7 6.9
2014-Oct-21 07:34N 37°04' E 024°34'5 5.0
2014-Oct-21 06:34N 37°08' E 024°31'0 0.0
2014-Oct-21 05:28N 37°08' E 024°31'0 0.0
2014-Oct-21 04:34N 37°08' E 024°31'4 4.0
2014-Oct-21 03:34N 37°05' E 024°29'9 9.1
2014-Oct-21 02:31N 37°10' E 024°20'1010.6
2014-Oct-21 01:33N 37°20' E 024°15'1110.9
2014-Oct-21 00:33N 37°31' E 024°12'19 1.7
2014-Oct-20 13:19N 37°38' E 023°51'8 9.9
2014-Oct-20 12:33N 37°41' E 023°42'1110.9
2014-Oct-20 11:33N 37°51' E 023°37'9 9.2
2014-Oct-20 10:33N 38°00' E 023°33'2 1.6
2014-Oct-20 09:27N 38°02' E 023°32'0 0.0
2014-Oct-20 08:33N 38°02' E 023°32'0 0.0
2014-Oct-20 07:27N 38°02' E 023°32'  
Track history (hours):
 
Tides and Currents Weather Stations Pressure Air Temp Water Temp Dewpoint Dewpoint Depression Visibility Wind Speed Wind Dir Waves Ship Positions

Eko 2

Last reported at 2014-Oct-30 07:16 UTC. Time now 2014-Oct-30 23:53 UTC.
Position N 36°50' E 025°52'.

Length 89 m; draft 4.3 m.

Type: Ship (hazmat cat A). MMSI: 240827000.

Date/timePositionNaut miles runAvg speedWind from/ knotsBaromVisibWave heightAir tempDewpointWater temp
2014-Oct-30 07:16N 36°50' E 025°52'3 4.8
2014-Oct-30 06:34N 36°53' E 025°52'9 9.0
2014-Oct-30 05:34N 36°58' E 026°01'8 8.3
2014-Oct-30 04:33N 37°00' E 026°11'10 8.8
2014-Oct-30 03:28N 37°03' E 026°23'  
2014-Oct-27 01:33N 36°17' E 026°17'1010.3
2014-Oct-27 00:33N 36°21' E 026°06'1010.4
2014-Oct-26 23:33N 36°25' E 025°54'1110.5
2014-Oct-26 22:33N 36°29' E 025°42'1010.4
2014-Oct-26 21:33N 36°34' E 025°30'1110.6
2014-Oct-26 20:33N 36°39' E 025°19'5 4.9
2014-Oct-26 19:33N 36°43' E 025°16'0 0.0
2014-Oct-26 18:33N 36°43' E 025°16'0 0.0
2014-Oct-26 17:29N 36°43' E 025°16'0 0.0
2014-Oct-26 16:32N 36°43' E 025°16'0 0.0
2014-Oct-26 15:30N 36°43' E 025°16'0 0.0
2014-Oct-26 14:30N 36°43' E 025°16'0 0.0
2014-Oct-26 13:30N 36°43' E 025°16'1 0.7
2014-Oct-26 12:33N 36°43' E 025°16'1 0.6
2014-Oct-26 11:32N 36°42' E 025°16'0 0.0
2014-Oct-26 10:34N 36°42' E 025°16'8 7.7
2014-Oct-26 09:33N 36°47' E 025°08'1111.0
2014-Oct-26 08:33N 36°55' E 024°58'9 9.1
2014-Oct-26 07:33N 37°03' E 025°02'5 0.3
2014-Oct-25 14:28N 37°06' E 025°07'9 9.6
2014-Oct-25 13:33N 37°10' E 025°17'6 5.9
2014-Oct-25 12:32N 37°06' E 025°22'0 0.0
2014-Oct-25 11:29N 37°06' E 025°22'0 0.0
2014-Oct-25 10:29N 37°06' E 025°22'0 0.0
2014-Oct-25 09:29N 37°06' E 025°22'0 0.1
2014-Oct-25 08:29N 37°06' E 025°22'0 0.1
2014-Oct-25 07:32N 37°06' E 025°22'0 0.0
2014-Oct-25 06:32N 37°06' E 025°22'0 0.0
2014-Oct-25 05:32N 37°06' E 025°22'0 0.0
2014-Oct-25 04:29N 37°06' E 025°22'0 0.0
2014-Oct-25 03:32N 37°06' E 025°22'0 0.0
2014-Oct-25 02:29N 37°06' E 025°22'0 0.0
2014-Oct-25 01:29N 37°06' E 025°22'0 0.0
2014-Oct-25 00:29N 37°06' E 025°22'0 0.0
2014-Oct-24 23:29N 37°06' E 025°22'0 0.0
2014-Oct-24 22:32N 37°06' E 025°22'0 0.0
2014-Oct-24 21:32N 37°06' E 025°22'0 0.0
2014-Oct-24 20:32N 37°06' E 025°22'0 0.1
2014-Oct-24 19:29N 37°06' E 025°22'0 0.1
2014-Oct-24 18:29N 37°06' E 025°22'0 0.0
2014-Oct-24 17:29N 37°06' E 025°22'0 0.0
2014-Oct-24 16:32N 37°06' E 025°22'0 0.0
2014-Oct-24 15:29N 37°06' E 025°22'0 0.0
2014-Oct-24 14:32N 37°06' E 025°22'0 0.0
2014-Oct-24 13:32N 37°06' E 025°22'0 0.0
2014-Oct-24 12:32N 37°06' E 025°22'0 0.0
2014-Oct-24 11:29N 37°06' E 025°22'0 0.0
2014-Oct-24 10:30N 37°06' E 025°22'0 0.0
2014-Oct-24 09:33N 37°06' E 025°22'0 0.0
2014-Oct-24 08:33N 37°06' E 025°22'1 0.6
2014-Oct-24 07:33N 37°06' E 025°22'0 0.5
2014-Oct-24 06:32N 37°06' E 025°22'0 0.0
2014-Oct-24 05:32N 37°06' E 025°22'1 0.5
2014-Oct-24 04:34N 37°06' E 025°22'1 0.6
2014-Oct-24 03:33N 37°06' E 025°22'0 0.0
2014-Oct-24 02:33N 37°06' E 025°22'0 0.0
2014-Oct-24 01:33N 37°06' E 025°22'0 0.0
2014-Oct-24 00:33N 37°06' E 025°22'0 0.0
2014-Oct-23 23:33N 37°06' E 025°22'0 0.0
2014-Oct-23 22:27N 37°06' E 025°22'0 0.0
2014-Oct-23 21:33N 37°06' E 025°22'0 0.0
2014-Oct-23 20:33N 37°06' E 025°22'0 0.0
2014-Oct-23 19:33N 37°06' E 025°22'1 0.5
2014-Oct-23 18:28N 37°06' E 025°22'0 0.0
2014-Oct-23 17:28N 37°06' E 025°22'0 0.0
2014-Oct-23 16:28N 37°06' E 025°22'1 0.7
2014-Oct-23 15:32N 37°06' E 025°22'0 0.0
2014-Oct-23 14:27N 37°06' E 025°22'0 0.0
2014-Oct-23 13:33N 37°06' E 025°22'1 0.6
2014-Oct-23 12:33N 37°06' E 025°22'0 0.0
2014-Oct-23 11:33N 37°06' E 025°22'0 0.4
2014-Oct-23 10:33N 37°06' E 025°22'0 0.2
2014-Oct-23 09:33N 37°06' E 025°22'2 2.1
2014-Oct-23 08:33N 37°06' E 025°19'1111.4
2014-Oct-23 07:33N 36°54' E 025°15'1111.5
2014-Oct-23 06:33N 36°43' E 025°14'1111.2
2014-Oct-23 05:34N 36°33' E 025°18'1110.9
2014-Oct-23 04:33N 36°23' E 025°26'0 0.1
2014-Oct-23 03:27N 36°23' E 025°26'0 0.0
2014-Oct-23 02:33N 36°23' E 025°26'0 0.0
2014-Oct-23 01:33N 36°23' E 025°26'0 0.0
2014-Oct-23 00:31N 36°23' E 025°26'0 0.0
2014-Oct-22 23:33N 36°23' E 025°26'0 0.0
2014-Oct-22 22:33N 36°23' E 025°26'0 0.0
2014-Oct-22 21:33N 36°23' E 025°26'0 0.0
2014-Oct-22 20:28N 36°23' E 025°26'0 0.0
2014-Oct-22 19:31N 36°23' E 025°26'0 0.0
2014-Oct-22 18:30N 36°23' E 025°26'0 0.0
2014-Oct-22 17:34N 36°23' E 025°26'0 0.0
2014-Oct-22 16:30N 36°23' E 025°26'0 0.0
2014-Oct-22 15:33N 36°23' E 025°26'0 0.0
2014-Oct-22 14:33N 36°23' E 025°26'0 0.0
2014-Oct-22 13:33N 36°23' E 025°26'0 0.0
2014-Oct-22 12:33N 36°23' E 025°26'0 0.0
2014-Oct-22 11:33N 36°23' E 025°26'0 0.0
2014-Oct-22 10:32N 36°23' E 025°26'7 7.4
2014-Oct-22 09:33N 36°29' E 025°21'32 9.6
2014-Oct-22 06:16N 36°49' E 024°50'810.6
2014-Oct-22 05:34N 36°51' E 024°41'10 9.7
2014-Oct-22 04:31N 36°50' E 024°28'7 0.5
2014-Oct-21 14:33N 36°42' E 024°27'8 7.7
2014-Oct-21 13:33N 36°50' E 024°29'13 2.7
2014-Oct-21 08:33N 36°59' E 024°40'7 6.9
2014-Oct-21 07:34N 37°04' E 024°34'5 5.0
2014-Oct-21 06:34N 37°08' E 024°31'0 0.0
2014-Oct-21 05:28N 37°08' E 024°31'0 0.0
2014-Oct-21 04:34N 37°08' E 024°31'4 4.0
2014-Oct-21 03:34N 37°05' E 024°29'9 9.1
2014-Oct-21 02:31N 37°10' E 024°20'1010.6
2014-Oct-21 01:33N 37°20' E 024°15'1110.9
2014-Oct-21 00:33N 37°31' E 024°12'19 1.7
2014-Oct-20 13:19N 37°38' E 023°51'8 9.9
2014-Oct-20 12:33N 37°41' E 023°42'1110.9
2014-Oct-20 11:33N 37°51' E 023°37'9 9.2
2014-Oct-20 10:33N 38°00' E 023°33'2 1.6
2014-Oct-20 09:27N 38°02' E 023°32'0 0.0
2014-Oct-20 08:33N 38°02' E 023°32'0 0.0
2014-Oct-20 07:27N 38°02' E 023°32'  

Dump ship's entire track history